sensor_id;sensor_type;location;lat;lon;timestamp;pressure;altitude;pressure_sealevel;temperature;humidity
60371;BME280;48550;40.588;49.684;2024-01-16T00:00:34;102245.59;;;0.09;74.32
60371;BME280;48550;40.588;49.684;2024-01-16T00:03:00;102252.50;;;0.15;74.45
60371;BME280;48550;40.588;49.684;2024-01-16T00:05:25;102247.25;;;0.20;74.06
60371;BME280;48550;40.588;49.684;2024-01-16T00:07:51;102249.88;;;0.16;73.73
60371;BME280;48550;40.588;49.684;2024-01-16T00:10:17;102245.47;;;0.25;74.68
60371;BME280;48550;40.588;49.684;2024-01-16T00:12:42;102248.00;;;0.31;74.31
60371;BME280;48550;40.588;49.684;2024-01-16T00:15:08;102251.44;;;0.31;73.50
60371;BME280;48550;40.588;49.684;2024-01-16T00:17:35;102251.34;;;0.41;74.02
60371;BME280;48550;40.588;49.684;2024-01-16T00:20:01;102245.41;;;0.29;73.28
60371;BME280;48550;40.588;49.684;2024-01-16T00:22:27;102229.69;;;0.42;73.19
60371;BME280;48550;40.588;49.684;2024-01-16T00:24:53;102222.91;;;0.27;72.82
60371;BME280;48550;40.588;49.684;2024-01-16T00:27:18;102219.47;;;0.26;74.15
60371;BME280;48550;40.588;49.684;2024-01-16T00:29:44;102221.31;;;0.16;73.39
60371;BME280;48550;40.588;49.684;2024-01-16T00:32:10;102226.34;;;0.33;74.31
60371;BME280;48550;40.588;49.684;2024-01-16T00:34:36;102229.03;;;0.23;73.92
60371;BME280;48550;40.588;49.684;2024-01-16T00:37:01;102226.50;;;0.15;74.25
60371;BME280;48550;40.588;49.684;2024-01-16T00:39:27;102211.69;;;0.26;75.19
60371;BME280;48550;40.588;49.684;2024-01-16T00:41:53;102197.13;;;0.13;74.42
60371;BME280;48550;40.588;49.684;2024-01-16T00:44:18;102217.66;;;0.31;74.50
60371;BME280;48550;40.588;49.684;2024-01-16T00:46:44;102217.69;;;0.30;73.98
60371;BME280;48550;40.588;49.684;2024-01-16T00:49:10;102214.06;;;0.45;74.75
60371;BME280;48550;40.588;49.684;2024-01-16T00:51:35;102203.75;;;0.39;74.41
60371;BME280;48550;40.588;49.684;2024-01-16T00:54:01;102211.53;;;0.39;73.82
60371;BME280;48550;40.588;49.684;2024-01-16T00:56:27;102203.84;;;0.29;74.97
60371;BME280;48550;40.588;49.684;2024-01-16T00:58:53;102209.94;;;0.25;74.87
60371;BME280;48550;40.588;49.684;2024-01-16T01:01:21;102209.19;;;0.15;75.12
60371;BME280;48550;40.588;49.684;2024-01-16T01:03:47;102207.41;;;0.19;75.49
60371;BME280;48550;40.588;49.684;2024-01-16T01:06:13;102191.00;;;0.15;75.14
60371;BME280;48550;40.588;49.684;2024-01-16T01:08:38;102196.31;;;0.05;75.27
60371;BME280;48550;40.588;49.684;2024-01-16T01:11:04;102188.44;;;0.11;75.87
60371;BME280;48550;40.588;49.684;2024-01-16T01:13:30;102185.75;;;0.20;75.90
60371;BME280;48550;40.588;49.684;2024-01-16T01:15:55;102178.69;;;0.31;74.49
60371;BME280;48550;40.588;49.684;2024-01-16T01:18:21;102176.09;;;0.31;74.73
60371;BME280;48550;40.588;49.684;2024-01-16T01:20:48;102171.66;;;0.40;75.29
60371;BME280;48550;40.588;49.684;2024-01-16T01:23:13;102172.59;;;0.37;74.31
60371;BME280;48550;40.588;49.684;2024-01-16T01:25:39;102172.47;;;0.46;75.43
60371;BME280;48550;40.588;49.684;2024-01-16T01:28:05;102160.28;;;0.51;75.08
60371;BME280;48550;40.588;49.684;2024-01-16T01:30:31;102157.63;;;0.56;73.81
60371;BME280;48550;40.588;49.684;2024-01-16T01:32:57;102158.41;;;0.63;74.04
60371;BME280;48550;40.588;49.684;2024-01-16T01:35:23;102142.91;;;0.55;74.49
60371;BME280;48550;40.588;49.684;2024-01-16T01:37:49;102154.91;;;0.67;74.49
60371;BME280;48550;40.588;49.684;2024-01-16T01:40:14;102150.66;;;0.58;74.63
60371;BME280;48550;40.588;49.684;2024-01-16T01:42:44;102148.09;;;0.55;74.69
60371;BME280;48550;40.588;49.684;2024-01-16T01:45:10;102134.34;;;0.47;74.62
60371;BME280;48550;40.588;49.684;2024-01-16T01:47:40;102133.44;;;0.51;75.04
60371;BME280;48550;40.588;49.684;2024-01-16T01:50:09;102138.75;;;0.42;74.23
60371;BME280;48550;40.588;49.684;2024-01-16T01:52:37;102131.00;;;0.37;73.63
60371;BME280;48550;40.588;49.684;2024-01-16T01:55:05;102143.94;;;0.42;74.38
60371;BME280;48550;40.588;49.684;2024-01-16T01:57:33;102130.00;;;0.49;73.92
60371;BME280;48550;40.588;49.684;2024-01-16T02:00:00;102121.25;;;0.54;73.08
60371;BME280;48550;40.588;49.684;2024-01-16T02:02:26;102117.69;;;0.60;73.62
60371;BME280;48550;40.588;49.684;2024-01-16T02:04:52;102114.28;;;0.58;73.12
60371;BME280;48550;40.588;49.684;2024-01-16T02:07:18;102118.66;;;0.54;72.69
60371;BME280;48550;40.588;49.684;2024-01-16T02:09:44;102114.50;;;0.40;73.91
60371;BME280;48550;40.588;49.684;2024-01-16T02:12:10;102099.03;;;0.32;73.79
60371;BME280;48550;40.588;49.684;2024-01-16T02:14:35;102101.63;;;0.33;74.08
60371;BME280;48550;40.588;49.684;2024-01-16T02:17:01;102099.91;;;0.32;74.41
60371;BME280;48550;40.588;49.684;2024-01-16T02:19:26;102096.38;;;0.35;73.87
60371;BME280;48550;40.588;49.684;2024-01-16T02:21:56;102088.38;;;0.52;72.53
60371;BME280;48550;40.588;49.684;2024-01-16T02:24:24;102089.13;;;0.60;73.16
60371;BME280;48550;40.588;49.684;2024-01-16T02:26:50;102093.31;;;0.70;72.04
60371;BME280;48550;40.588;49.684;2024-01-16T02:29:15;102099.25;;;0.79;70.31
60371;BME280;48550;40.588;49.684;2024-01-16T02:31:41;102092.31;;;0.79;70.50
60371;BME280;48550;40.588;49.684;2024-01-16T02:34:07;102087.94;;;0.83;70.55
60371;BME280;48550;40.588;49.684;2024-01-16T02:36:34;102086.16;;;0.85;70.45
60371;BME280;48550;40.588;49.684;2024-01-16T02:39:00;102073.91;;;0.93;69.54
60371;BME280;48550;40.588;49.684;2024-01-16T02:41:26;102073.16;;;0.86;70.20
60371;BME280;48550;40.588;49.684;2024-01-16T02:43:51;102072.38;;;0.81;70.19
60371;BME280;48550;40.588;49.684;2024-01-16T02:46:17;102075.03;;;0.77;69.94
60371;BME280;48550;40.588;49.684;2024-01-16T02:48:43;102075.09;;;0.72;70.20
60371;BME280;48550;40.588;49.684;2024-01-16T02:51:09;102075.09;;;0.72;70.17
60371;BME280;48550;40.588;49.684;2024-01-16T02:53:35;102067.28;;;0.74;70.05
60371;BME280;48550;40.588;49.684;2024-01-16T02:56:01;102088.09;;;0.72;70.23
60371;BME280;48550;40.588;49.684;2024-01-16T02:58:27;102062.13;;;0.69;69.87
60371;BME280;48550;40.588;49.684;2024-01-16T03:00:53;102072.66;;;0.61;70.68
60371;BME280;48550;40.588;49.684;2024-01-16T03:03:19;102064.06;;;0.56;71.27
60371;BME280;48550;40.588;49.684;2024-01-16T03:05:46;102060.69;;;0.51;71.79
60371;BME280;48550;40.588;49.684;2024-01-16T03:08:12;102075.34;;;0.55;73.34
60371;BME280;48550;40.588;49.684;2024-01-16T03:10:37;102071.06;;;0.51;72.98
60371;BME280;48550;40.588;49.684;2024-01-16T03:13:03;102063.44;;;0.40;72.50
60371;BME280;48550;40.588;49.684;2024-01-16T03:15:29;102064.34;;;0.36;73.15
60371;BME280;48550;40.588;49.684;2024-01-16T03:17:58;102067.75;;;0.40;74.22
60371;BME280;48550;40.588;49.684;2024-01-16T03:20:25;102058.09;;;0.49;73.26
60371;BME280;48550;40.588;49.684;2024-01-16T03:22:51;102072.78;;;0.52;71.71
60371;BME280;48550;40.588;49.684;2024-01-16T03:25:17;102061.50;;;0.53;70.77
60371;BME280;48550;40.588;49.684;2024-01-16T03:27:43;102053.78;;;0.47;70.19
60371;BME280;48550;40.588;49.684;2024-01-16T03:30:10;102036.59;;;0.36;70.24
60371;BME280;48550;40.588;49.684;2024-01-16T03:32:37;102039.19;;;0.38;70.24
60371;BME280;48550;40.588;49.684;2024-01-16T03:35:03;102041.06;;;0.27;71.42
60371;BME280;48550;40.588;49.684;2024-01-16T03:37:29;102045.91;;;0.53;72.82
60371;BME280;48550;40.588;49.684;2024-01-16T03:39:55;102043.44;;;0.45;71.77
60371;BME280;48550;40.588;49.684;2024-01-16T03:42:22;102044.19;;;0.52;71.32
60371;BME280;48550;40.588;49.684;2024-01-16T03:44:48;102030.97;;;0.67;70.44
60371;BME280;48550;40.588;49.684;2024-01-16T03:47:15;102043.81;;;0.78;69.59
60371;BME280;48550;40.588;49.684;2024-01-16T03:49:41;102050.00;;;0.69;70.10
60371;BME280;48550;40.588;49.684;2024-01-16T03:52:07;102057.91;;;0.60;70.71
60371;BME280;48550;40.588;49.684;2024-01-16T03:54:41;102066.34;;;0.76;71.63
60371;BME280;48550;40.588;49.684;2024-01-16T03:57:18;102071.50;;;0.79;70.90
60371;BME280;48550;40.588;49.684;2024-01-16T03:59:47;102049.72;;;0.88;70.11
60371;BME280;48550;40.588;49.684;2024-01-16T04:02:13;102055.72;;;0.92;70.48
60371;BME280;48550;40.588;49.684;2024-01-16T04:04:38;102058.97;;;1.04;70.72
60371;BME280;48550;40.588;49.684;2024-01-16T04:07:04;102038.22;;;1.01;70.34
60371;BME280;48550;40.588;49.684;2024-01-16T04:09:30;102029.47;;;1.07;70.25
60371;BME280;48550;40.588;49.684;2024-01-16T04:11:56;102038.03;;;1.14;69.37
60371;BME280;48550;40.588;49.684;2024-01-16T04:14:22;102029.50;;;1.52;68.87
60371;BME280;48550;40.588;49.684;2024-01-16T04:16:47;102014.56;;;1.62;68.97
60371;BME280;48550;40.588;49.684;2024-01-16T04:19:13;102021.09;;;1.85;67.29
60371;BME280;48550;40.588;49.684;2024-01-16T04:21:39;102016.03;;;3.25;63.40
60371;BME280;48550;40.588;49.684;2024-01-16T04:24:04;102014.47;;;4.69;58.47
60371;BME280;48550;40.588;49.684;2024-01-16T04:26:30;102008.84;;;5.80;55.29
60371;BME280;48550;40.588;49.684;2024-01-16T04:28:57;102022.19;;;6.88;52.10
60371;BME280;48550;40.588;49.684;2024-01-16T04:31:23;102017.16;;;7.85;50.20
60371;BME280;48550;40.588;49.684;2024-01-16T04:33:49;102022.97;;;8.48;48.20
60371;BME280;48550;40.588;49.684;2024-01-16T04:36:15;102014.16;;;8.67;46.90
60371;BME280;48550;40.588;49.684;2024-01-16T04:38:40;102016.72;;;8.68;46.77
60371;BME280;48550;40.588;49.684;2024-01-16T04:41:07;102024.41;;;8.73;45.56
60371;BME280;48550;40.588;49.684;2024-01-16T04:43:32;102032.44;;;9.40;45.16
60371;BME280;48550;40.588;49.684;2024-01-16T04:45:58;102028.41;;;9.50;44.34
60371;BME280;48550;40.588;49.684;2024-01-16T04:48:24;102035.78;;;10.26;42.73
60371;BME280;48550;40.588;49.684;2024-01-16T04:50:49;102039.00;;;10.63;42.05
60371;BME280;48550;40.588;49.684;2024-01-16T04:53:15;102026.09;;;11.34;41.25
60371;BME280;48550;40.588;49.684;2024-01-16T04:55:41;102023.88;;;11.71;40.49
60371;BME280;48550;40.588;49.684;2024-01-16T04:58:07;102023.75;;;12.15;38.79
60371;BME280;48550;40.588;49.684;2024-01-16T05:00:32;102011.53;;;10.51;41.29
60371;BME280;48550;40.588;49.684;2024-01-16T05:02:58;102007.38;;;11.22;39.84
60371;BME280;48550;40.588;49.684;2024-01-16T05:05:26;102010.94;;;11.07;40.77
60371;BME280;48550;40.588;49.684;2024-01-16T05:07:51;102011.72;;;9.67;41.89
60371;BME280;48550;40.588;49.684;2024-01-16T05:10:17;102016.66;;;7.76;46.45
60371;BME280;48550;40.588;49.684;2024-01-16T05:12:43;102015.53;;;5.89;51.46
60371;BME280;48550;40.588;49.684;2024-01-16T05:15:09;102024.88;;;4.97;54.31
60371;BME280;48550;40.588;49.684;2024-01-16T05:17:36;102018.09;;;4.36;56.13
60371;BME280;48550;40.588;49.684;2024-01-16T05:20:03;102019.09;;;4.04;58.24
60371;BME280;48550;40.588;49.684;2024-01-16T05:22:29;102010.91;;;4.98;57.67
60371;BME280;48550;40.588;49.684;2024-01-16T05:24:55;102015.28;;;8.06;49.56
60371;BME280;48550;40.588;49.684;2024-01-16T05:27:21;102001.53;;;11.32;42.55
60371;BME280;48550;40.588;49.684;2024-01-16T05:29:46;102012.84;;;13.40;38.21
60371;BME280;48550;40.588;49.684;2024-01-16T05:32:13;102016.47;;;14.39;35.08
60371;BME280;48550;40.588;49.684;2024-01-16T05:34:39;102013.75;;;15.12;34.95
60371;BME280;48550;40.588;49.684;2024-01-16T05:37:05;102012.47;;;15.74;32.98
60371;BME280;48550;40.588;49.684;2024-01-16T05:39:31;102011.13;;;15.34;33.01
60371;BME280;48550;40.588;49.684;2024-01-16T05:41:56;102013.78;;;16.25;31.76
60371;BME280;48550;40.588;49.684;2024-01-16T05:44:22;102018.16;;;16.03;31.08
60371;BME280;48550;40.588;49.684;2024-01-16T05:46:48;102019.78;;;16.38;31.90
60371;BME280;48550;40.588;49.684;2024-01-16T05:49:14;102019.69;;;16.28;32.57
60371;BME280;48550;40.588;49.684;2024-01-16T05:51:39;102004.94;;;14.76;32.48
60371;BME280;48550;40.588;49.684;2024-01-16T05:54:05;101991.56;;;13.79;33.92
60371;BME280;48550;40.588;49.684;2024-01-16T05:56:31;101980.00;;;11.67;37.98
60371;BME280;48550;40.588;49.684;2024-01-16T05:58:57;101969.97;;;11.86;38.68
60371;BME280;48550;40.588;49.684;2024-01-16T06:01:23;101969.28;;;12.11;37.98
60371;BME280;48550;40.588;49.684;2024-01-16T06:03:48;101961.19;;;12.67;37.44
60371;BME280;48550;40.588;49.684;2024-01-16T06:06:15;101944.78;;;13.78;35.82
60371;BME280;48550;40.588;49.684;2024-01-16T06:08:41;101932.41;;;14.62;34.29
60371;BME280;48550;40.588;49.684;2024-01-16T06:11:07;101919.34;;;14.11;34.96
60371;BME280;48550;40.588;49.684;2024-01-16T06:13:33;101931.75;;;14.83;34.29
60371;BME280;48550;40.588;49.684;2024-01-16T06:15:58;101917.22;;;14.76;33.67
60371;BME280;48550;40.588;49.684;2024-01-16T06:18:24;101930.97;;;14.10;35.40
60371;BME280;48550;40.588;49.684;2024-01-16T06:20:50;101925.25;;;14.03;34.76
60371;BME280;48550;40.588;49.684;2024-01-16T06:23:16;101942.09;;;14.50;34.16
60371;BME280;48550;40.588;49.684;2024-01-16T06:25:41;101941.00;;;14.42;34.54
60371;BME280;48550;40.588;49.684;2024-01-16T06:28:07;101927.41;;;15.04;33.87
60371;BME280;48550;40.588;49.684;2024-01-16T06:30:33;101929.47;;;15.46;33.15
60371;BME280;48550;40.588;49.684;2024-01-16T06:32:58;101937.88;;;14.72;33.29
60371;BME280;48550;40.588;49.684;2024-01-16T06:35:24;101929.22;;;14.93;33.30
60371;BME280;48550;40.588;49.684;2024-01-16T06:37:50;101924.19;;;14.65;33.15
60371;BME280;48550;40.588;49.684;2024-01-16T06:40:16;101923.66;;;14.96;32.02
60371;BME280;48550;40.588;49.684;2024-01-16T06:42:42;101931.16;;;15.58;30.94
60371;BME280;48550;40.588;49.684;2024-01-16T06:45:08;101931.47;;;14.50;32.61
60371;BME280;48550;40.588;49.684;2024-01-16T06:47:33;101903.88;;;14.29;34.70
60371;BME280;48550;40.588;49.684;2024-01-16T06:49:59;101909.16;;;13.81;34.96
60371;BME280;48550;40.588;49.684;2024-01-16T06:52:25;101897.66;;;13.93;34.59
60371;BME280;48550;40.588;49.684;2024-01-16T06:54:51;101890.75;;;12.78;35.59
60371;BME280;48550;40.588;49.684;2024-01-16T06:57:16;101894.25;;;10.84;39.96
60371;BME280;48550;40.588;49.684;2024-01-16T06:59:42;101901.97;;;8.47;45.47
60371;BME280;48550;40.588;49.684;2024-01-16T07:02:08;101904.38;;;7.59;45.81
60371;BME280;48550;40.588;49.684;2024-01-16T07:04:34;101905.00;;;7.06;48.31
60371;BME280;48550;40.588;49.684;2024-01-16T07:06:59;101904.13;;;6.66;49.69
60371;BME280;48550;40.588;49.684;2024-01-16T07:09:26;101893.56;;;6.25;49.17
60371;BME280;48550;40.588;49.684;2024-01-16T07:11:53;101899.69;;;6.03;52.08
60371;BME280;48550;40.588;49.684;2024-01-16T07:14:19;101907.63;;;6.02;50.72
60371;BME280;48550;40.588;49.684;2024-01-16T07:16:46;101906.03;;;5.97;52.97
60371;BME280;48550;40.588;49.684;2024-01-16T07:19:11;101906.38;;;6.10;52.65
60371;BME280;48550;40.588;49.684;2024-01-16T07:21:37;101902.06;;;6.09;52.23
60371;BME280;48550;40.588;49.684;2024-01-16T07:24:03;101900.66;;;6.23;52.19
60371;BME280;48550;40.588;49.684;2024-01-16T07:26:29;101901.72;;;6.39;52.93
60371;BME280;48550;40.588;49.684;2024-01-16T07:28:55;101885.78;;;6.44;52.34
60371;BME280;48550;40.588;49.684;2024-01-16T07:31:21;101888.28;;;6.47;52.78
60371;BME280;48550;40.588;49.684;2024-01-16T07:33:47;101902.28;;;6.68;53.17
60371;BME280;48550;40.588;49.684;2024-01-16T07:36:13;101889.22;;;6.66;52.46
60371;BME280;48550;40.588;49.684;2024-01-16T07:38:39;101875.56;;;6.58;50.26
60371;BME280;48550;40.588;49.684;2024-01-16T07:41:05;101851.88;;;6.39;50.95
60371;BME280;48550;40.588;49.684;2024-01-16T07:43:31;101842.84;;;6.46;50.81
60371;BME280;48550;40.588;49.684;2024-01-16T07:45:57;101820.72;;;6.52;51.51
60371;BME280;48550;40.588;49.684;2024-01-16T07:48:23;101814.25;;;6.61;52.67
60371;BME280;48550;40.588;49.684;2024-01-16T07:50:49;101799.78;;;6.71;51.16
60371;BME280;48550;40.588;49.684;2024-01-16T07:53:15;101786.25;;;6.80;51.74
60371;BME280;48550;40.588;49.684;2024-01-16T07:55:44;101776.25;;;6.88;52.50
60371;BME280;48550;40.588;49.684;2024-01-16T07:58:11;101761.88;;;6.97;51.36
60371;BME280;48550;40.588;49.684;2024-01-16T08:00:37;101756.34;;;7.03;49.70
60371;BME280;48550;40.588;49.684;2024-01-16T08:03:03;101760.38;;;7.11;49.82
60371;BME280;48550;40.588;49.684;2024-01-16T08:05:29;101778.81;;;7.28;49.60
60371;BME280;48550;40.588;49.684;2024-01-16T08:07:58;101785.28;;;7.40;49.01
60371;BME280;48550;40.588;49.684;2024-01-16T08:10:24;101773.31;;;7.52;47.92
60371;BME280;48550;40.588;49.684;2024-01-16T08:12:50;101778.53;;;7.71;47.60
60371;BME280;48550;40.588;49.684;2024-01-16T08:15:15;101780.94;;;7.75;46.86
60371;BME280;48550;40.588;49.684;2024-01-16T08:17:41;101780.72;;;7.80;44.84
60371;BME280;48550;40.588;49.684;2024-01-16T08:20:08;101779.56;;;7.86;49.91
60371;BME280;48550;40.588;49.684;2024-01-16T08:22:37;101779.69;;;7.82;45.71
60371;BME280;48550;40.588;49.684;2024-01-16T08:25:03;101778.25;;;7.77;46.67
60371;BME280;48550;40.588;49.684;2024-01-16T08:27:32;101766.63;;;7.63;46.17
60371;BME280;48550;40.588;49.684;2024-01-16T08:29:59;101761.38;;;7.63;47.69
60371;BME280;48550;40.588;49.684;2024-01-16T08:32:25;101755.25;;;7.63;46.87
60371;BME280;48550;40.588;49.684;2024-01-16T08:34:50;101749.31;;;7.59;48.33
60371;BME280;48550;40.588;49.684;2024-01-16T08:37:16;101752.69;;;7.61;47.64
60371;BME280;48550;40.588;49.684;2024-01-16T08:39:42;101739.09;;;7.71;47.73
60371;BME280;48550;40.588;49.684;2024-01-16T08:42:08;101740.09;;;7.86;46.66
60371;BME280;48550;40.588;49.684;2024-01-16T08:44:38;101742.22;;;7.96;47.71
60371;BME280;48550;40.588;49.684;2024-01-16T08:47:05;101727.19;;;8.16;48.64
60371;BME280;48550;40.588;49.684;2024-01-16T08:49:32;101711.00;;;8.24;47.77
60371;BME280;48550;40.588;49.684;2024-01-16T08:51:58;101722.44;;;8.40;46.31
60371;BME280;48550;40.588;49.684;2024-01-16T08:54:24;101716.03;;;8.46;45.82
60371;BME280;48550;40.588;49.684;2024-01-16T08:56:51;101709.53;;;8.69;47.04
60371;BME280;48550;40.588;49.684;2024-01-16T08:59:17;101708.06;;;8.63;44.72
60371;BME280;48550;40.588;49.684;2024-01-16T09:01:43;101705.59;;;8.60;42.76
60371;BME280;48550;40.588;49.684;2024-01-16T09:04:09;101699.19;;;8.66;43.37
60371;BME280;48550;40.588;49.684;2024-01-16T09:06:35;101688.22;;;8.58;43.73
60371;BME280;48550;40.588;49.684;2024-01-16T09:09:00;101679.25;;;8.44;43.42
60371;BME280;48550;40.588;49.684;2024-01-16T09:11:26;101663.09;;;8.34;45.13
60371;BME280;48550;40.588;49.684;2024-01-16T09:13:52;101660.00;;;8.26;47.40
60371;BME280;48550;40.588;49.684;2024-01-16T09:16:18;101641.91;;;8.20;45.32
60371;BME280;48550;40.588;49.684;2024-01-16T09:18:43;101646.09;;;8.24;46.38
60371;BME280;48550;40.588;49.684;2024-01-16T09:21:09;101654.59;;;8.29;45.88
60371;BME280;48550;40.588;49.684;2024-01-16T09:23:35;101649.75;;;8.38;46.00
60371;BME280;48550;40.588;49.684;2024-01-16T09:26:01;101635.38;;;8.45;44.75
60371;BME280;48550;40.588;49.684;2024-01-16T09:28:26;101634.28;;;8.49;45.05
60371;BME280;48550;40.588;49.684;2024-01-16T09:30:54;101627.66;;;8.58;43.07
60371;BME280;48550;40.588;49.684;2024-01-16T09:33:24;101623.09;;;8.61;42.68
60371;BME280;48550;40.588;49.684;2024-01-16T09:35:51;101610.94;;;8.59;43.19
60371;BME280;48550;40.588;49.684;2024-01-16T09:38:17;101606.63;;;8.74;43.21
60371;BME280;48550;40.588;49.684;2024-01-16T09:40:43;101602.69;;;8.81;44.02
60371;BME280;48550;40.588;49.684;2024-01-16T09:43:09;101606.69;;;8.72;44.25
60371;BME280;48550;40.588;49.684;2024-01-16T09:45:37;101619.00;;;8.71;45.68
60371;BME280;48550;40.588;49.684;2024-01-16T09:48:05;101596.75;;;8.77;44.39
60371;BME280;48550;40.588;49.684;2024-01-16T09:50:31;101595.91;;;8.77;44.75
60371;BME280;48550;40.588;49.684;2024-01-16T09:52:57;101601.50;;;8.86;44.97
60371;BME280;48550;40.588;49.684;2024-01-16T09:55:23;101585.53;;;8.89;44.79
60371;BME280;48550;40.588;49.684;2024-01-16T09:57:52;101580.59;;;8.83;43.32
60371;BME280;48550;40.588;49.684;2024-01-16T10:00:19;101580.25;;;8.89;43.57
60371;BME280;48550;40.588;49.684;2024-01-16T10:02:45;101575.69;;;8.77;44.57
60371;BME280;48550;40.588;49.684;2024-01-16T10:05:11;101578.41;;;8.76;43.94
60371;BME280;48550;40.588;49.684;2024-01-16T10:07:38;101570.50;;;8.76;44.27
60371;BME280;48550;40.588;49.684;2024-01-16T10:10:05;101565.72;;;8.82;44.63
60371;BME280;48550;40.588;49.684;2024-01-16T10:12:31;101542.03;;;8.82;44.63
60371;BME280;48550;40.588;49.684;2024-01-16T10:14:57;101545.31;;;8.86;44.22
60371;BME280;48550;40.588;49.684;2024-01-16T10:17:35;101540.41;;;8.96;42.60
60371;BME280;48550;40.588;49.684;2024-01-16T10:20:01;101519.34;;;8.96;42.77
60371;BME280;48550;40.588;49.684;2024-01-16T10:22:30;101501.91;;;8.93;42.52
60371;BME280;48550;40.588;49.684;2024-01-16T10:25:06;101494.19;;;8.90;43.58
60371;BME280;48550;40.588;49.684;2024-01-16T10:27:36;101501.69;;;8.82;43.60
60371;BME280;48550;40.588;49.684;2024-01-16T10:30:03;101506.22;;;8.80;43.04
60371;BME280;48550;40.588;49.684;2024-01-16T10:32:39;101519.56;;;8.77;43.90
60371;BME280;48550;40.588;49.684;2024-01-16T10:35:13;101510.03;;;8.74;44.01
60371;BME280;48550;40.588;49.684;2024-01-16T10:37:49;101504.84;;;8.73;44.08
60371;BME280;48550;40.588;49.684;2024-01-16T10:40:19;101520.66;;;8.73;43.52
60371;BME280;48550;40.588;49.684;2024-01-16T10:43:18;101496.78;;;8.76;43.67
60371;BME280;48550;40.588;49.684;2024-01-16T10:45:37;101497.88;;;8.71;43.75
60371;BME280;48550;40.588;49.684;2024-01-16T10:48:07;101489.72;;;8.76;43.62
60371;BME280;48550;40.588;49.684;2024-01-16T10:50:34;101495.75;;;8.78;42.65
60371;BME280;48550;40.588;49.684;2024-01-16T10:53:03;101500.25;;;8.76;43.08
60371;BME280;48550;40.588;49.684;2024-01-16T10:55:29;101497.63;;;8.76;43.84
60371;BME280;48550;40.588;49.684;2024-01-16T10:57:58;101486.59;;;8.69;43.93
60371;BME280;48550;40.588;49.684;2024-01-16T11:00:27;101500.50;;;8.71;44.21
60371;BME280;48550;40.588;49.684;2024-01-16T11:03:15;101497.88;;;8.71;45.96
60371;BME280;48550;40.588;49.684;2024-01-16T11:05:44;101492.13;;;8.65;46.49
60371;BME280;48550;40.588;49.684;2024-01-16T11:08:12;101489.91;;;8.41;47.09
60371;BME280;48550;40.588;49.684;2024-01-16T11:10:39;101480.44;;;8.07;48.98
60371;BME280;48550;40.588;49.684;2024-01-16T11:13:06;101474.31;;;7.90;49.23
60371;BME280;48550;40.588;49.684;2024-01-16T11:15:32;101454.16;;;7.91;49.54
60371;BME280;48550;40.588;49.684;2024-01-16T11:17:59;101457.38;;;8.12;48.01
60371;BME280;48550;40.588;49.684;2024-01-16T11:20:25;101442.41;;;8.28;47.54
60371;BME280;48550;40.588;49.684;2024-01-16T11:22:53;101450.03;;;8.49;46.73
60371;BME280;48550;40.588;49.684;2024-01-16T11:25:31;101438.69;;;8.48;46.95
60371;BME280;48550;40.588;49.684;2024-01-16T11:28:11;101434.44;;;8.46;48.76
60371;BME280;48550;40.588;49.684;2024-01-16T11:30:37;101429.16;;;8.46;45.86
60371;BME280;48550;40.588;49.684;2024-01-16T11:33:04;101429.00;;;8.49;45.64
60371;BME280;48550;40.588;49.684;2024-01-16T11:35:36;101430.34;;;8.56;44.91
60371;BME280;48550;40.588;49.684;2024-01-16T11:38:09;101437.09;;;8.60;44.27
60371;BME280;48550;40.588;49.684;2024-01-16T11:40:35;101444.59;;;8.52;44.36
60371;BME280;48550;40.588;49.684;2024-01-16T11:45:58;101454.56;;;8.47;45.57
60371;BME280;48550;40.588;49.684;2024-01-16T11:48:24;101450.78;;;8.51;46.41
60371;BME280;48550;40.588;49.684;2024-01-16T11:50:50;101431.28;;;8.39;45.61
60371;BME280;48550;40.588;49.684;2024-01-16T11:53:38;101441.81;;;8.39;45.75
60371;BME280;48550;40.588;49.684;2024-01-16T12:01:29;101428.31;;;8.29;46.57
60371;BME280;48550;40.588;49.684;2024-01-16T12:04:07;101428.59;;;8.25;46.41
60371;BME280;48550;40.588;49.684;2024-01-16T12:06:35;101427.13;;;8.19;47.12
60371;BME280;48550;40.588;49.684;2024-01-16T12:09:12;101429.19;;;8.14;47.91
60371;BME280;48550;40.588;49.684;2024-01-16T12:11:39;101431.22;;;8.09;48.80
60371;BME280;48550;40.588;49.684;2024-01-16T12:14:05;101435.22;;;8.00;48.22
60371;BME280;48550;40.588;49.684;2024-01-16T12:16:31;101443.09;;;7.84;48.40
60371;BME280;48550;40.588;49.684;2024-01-16T12:19:06;101450.38;;;7.79;48.26
60371;BME280;48550;40.588;49.684;2024-01-16T12:24:05;101445.63;;;7.70;48.50
60371;BME280;48550;40.588;49.684;2024-01-16T12:26:31;101453.25;;;7.58;49.23
60371;BME280;48550;40.588;49.684;2024-01-16T12:28:57;101449.66;;;7.43;49.13
60371;BME280;48550;40.588;49.684;2024-01-16T12:31:23;101459.69;;;7.53;49.16
60371;BME280;48550;40.588;49.684;2024-01-16T12:33:51;101458.66;;;7.55;49.27
60371;BME280;48550;40.588;49.684;2024-01-16T12:36:17;101449.84;;;7.56;48.92
60371;BME280;48550;40.588;49.684;2024-01-16T12:38:43;101448.47;;;7.49;48.41
60371;BME280;48550;40.588;49.684;2024-01-16T12:41:10;101457.16;;;7.51;48.49
60371;BME280;48550;40.588;49.684;2024-01-16T12:43:37;101458.81;;;7.52;48.29
60371;BME280;48550;40.588;49.684;2024-01-16T12:46:03;101458.47;;;7.42;48.05
60371;BME280;48550;40.588;49.684;2024-01-16T12:48:29;101458.72;;;7.38;48.83
60371;BME280;48550;40.588;49.684;2024-01-16T12:51:01;101454.88;;;7.28;48.68
60371;BME280;48550;40.588;49.684;2024-01-16T12:53:32;101449.63;;;7.28;48.40
60371;BME280;48550;40.588;49.684;2024-01-16T12:56:00;101444.16;;;7.15;48.95